createdAt,value
2022-09-01T00:00:03.189Z,100040.69
2022-09-01T00:02:33.485Z,100030.03
2022-09-01T00:05:00.460Z,100026.88
2022-09-01T00:07:32.029Z,100037.03
2022-09-01T00:09:59.876Z,100024.03
2022-09-01T00:12:26.971Z,100041.75
2022-09-01T00:14:54.137Z,100014.22
2022-09-01T00:17:20.991Z,100038.69
2022-09-01T00:19:47.707Z,100037.88
2022-09-01T00:22:14.478Z,100023.31
2022-09-01T00:24:41.236Z,100006.03
2022-09-01T00:27:08.011Z,100040.78
2022-09-01T00:29:36.152Z,100040.78
2022-09-01T00:32:03.670Z,100043.09
2022-09-01T00:34:30.457Z,100036.06
2022-09-01T00:36:57.327Z,100035.22
2022-09-01T00:39:24.042Z,100042.59
2022-09-01T00:41:51.352Z,100033.94
2022-09-01T00:44:29.619Z,100045.59
2022-09-01T00:46:58.604Z,100043.13
2022-09-01T00:49:38.787Z,100055.94
2022-09-01T00:52:15.721Z,100044.91
2022-09-01T00:54:47.866Z,100051.59
2022-09-01T00:57:15.477Z,100047.75
2022-09-01T00:59:49.983Z,100023.91
2022-09-01T01:02:16.750Z,100014.44
2022-09-01T01:04:43.754Z,100028.22
2022-09-01T01:07:12.206Z,100026.16
2022-09-01T01:09:43.927Z,100053.63
2022-09-01T01:12:18.362Z,100031.13
2022-09-01T01:14:52.126Z,100047.09
2022-09-01T01:17:21.490Z,100046.06
2022-09-01T01:20:13.091Z,100057.00
2022-09-01T01:23:10.734Z,100027.63
2022-09-01T01:25:57.350Z,100039.41
2022-09-01T01:28:35.673Z,100022.88
2022-09-01T01:31:14.550Z,100043.25
2022-09-01T01:33:45.097Z,100047.56
2022-09-01T01:36:21.512Z,100051.31
2022-09-01T01:38:49.510Z,100047.81
2022-09-01T01:41:19.765Z,100033.13
2022-09-01T01:43:48.200Z,100049.13
2022-09-01T01:46:19.030Z,100027.25
2022-09-01T01:48:47.206Z,100049.19
2022-09-01T01:51:20.100Z,100044.88
2022-09-01T01:53:52.555Z,100049.59
2022-09-01T02:00:34.654Z,100008.53
2022-09-01T02:03:02.616Z,100049.59
2022-09-01T02:05:32.349Z,100042.81
2022-09-01T02:08:04.048Z,100035.72
2022-09-01T02:10:34.436Z,100048.91
2022-09-01T02:13:04.651Z,100046.66
2022-09-01T02:15:43.697Z,100044.41
2022-09-01T02:18:14.258Z,100042.38
2022-09-01T02:20:41.901Z,100038.97
2022-09-01T02:23:11.506Z,100046.78
2022-09-01T02:28:54.231Z,99982.22
2022-09-01T02:31:27.895Z,100055.25
2022-09-01T02:33:55.742Z,100024.94
2022-09-01T02:36:22.605Z,100052.03
2022-09-01T02:38:53.281Z,100034.81
2022-09-01T02:41:27.113Z,100049.16
2022-09-01T02:43:54.428Z,100027.25
2022-09-01T02:46:24.919Z,100047.09
2022-09-01T02:48:53.510Z,100010.41
2022-09-01T02:51:25.625Z,100031.31
2022-09-01T02:53:53.004Z,100056.16
2022-09-01T02:56:25.608Z,100030.91
2022-09-01T02:58:53.947Z,100054.69
2022-09-01T03:01:29.387Z,100055.31
2022-09-01T03:04:00.357Z,100058.00
2022-09-01T03:06:28.334Z,100055.31
2022-09-01T03:09:00.121Z,100057.59
2022-09-01T03:11:29.474Z,100034.00
2022-09-01T03:13:56.874Z,100044.69
2022-09-01T03:16:23.807Z,100050.06
2022-09-01T03:18:52.004Z,100048.00
2022-09-01T03:21:21.126Z,100055.56
2022-09-01T03:23:49.549Z,100051.69
2022-09-01T03:26:19.381Z,100053.75
2022-09-01T03:28:46.902Z,100034.66
2022-09-01T03:31:14.530Z,100045.75
2022-09-01T03:33:42.530Z,100048.81
2022-09-01T03:36:19.620Z,100029.13
2022-09-01T03:38:49.793Z,100050.06
2022-09-01T03:41:22.400Z,100047.00
2022-09-01T03:43:49.930Z,100051.53
2022-09-01T03:46:24.325Z,100045.78
2022-09-01T03:48:55.323Z,100045.19
2022-09-01T03:51:23.652Z,100042.94
2022-09-01T03:53:54.906Z,100045.59
2022-09-01T03:56:27.312Z,100027.56
2022-09-01T03:58:57.605Z,100048.06
2022-09-01T04:01:43.383Z,100036.22
2022-09-01T04:04:14.860Z,100052.44
2022-09-01T04:06:43.518Z,100053.47
2022-09-01T04:09:10.908Z,100042.03
2022-09-01T04:11:45.866Z,100048.38
2022-09-01T04:14:15.819Z,100052.53
2022-09-01T04:17:02.145Z,100024.88
2022-09-01T04:19:30.505Z,100061.38
2022-09-01T04:22:00.415Z,100053.97
2022-09-01T04:24:33.089Z,100020.72
2022-09-01T04:27:02.792Z,100047.84
2022-09-01T04:29:31.900Z,100057.47
2022-09-01T04:32:03.617Z,100048.63
2022-09-01T04:34:37.470Z,100056.38
2022-09-01T04:37:13.191Z,100054.94
2022-09-01T04:39:40.674Z,100025.59
2022-09-01T04:42:09.154Z,100046.44
2022-09-01T04:44:36.640Z,100058.56
2022-09-01T04:47:10.874Z,100054.25
2022-09-01T04:49:37.849Z,100031.72
2022-09-01T04:52:04.975Z,100023.34
2022-09-01T04:54:32.842Z,100032.31
2022-09-01T04:57:00.290Z,100020.22
2022-09-01T04:59:30.550Z,100043.97
2022-09-01T05:02:01.201Z,100019.75
2022-09-01T05:04:33.841Z,100053.69
2022-09-01T05:07:02.776Z,100022.03
2022-09-01T05:09:38.229Z,100050.31
2022-09-01T05:12:27.586Z,100050.38
2022-09-01T05:14:55.856Z,100028.66
2022-09-01T05:17:24.554Z,100046.56
2022-09-01T05:19:51.332Z,100033.72
2022-09-01T05:22:22.171Z,100058.56
2022-09-01T05:24:56.023Z,100049.97
2022-09-01T05:27:23.806Z,100061.09
2022-09-01T05:29:50.671Z,100039.50
2022-09-01T05:32:17.734Z,100029.47
2022-09-01T05:34:46.061Z,100034.44
2022-09-01T05:37:16.164Z,100065.44
2022-09-01T05:39:42.887Z,100065.84
2022-09-01T05:42:10.086Z,100039.19
2022-09-01T05:44:44.886Z,100045.94
2022-09-01T05:47:21.076Z,100068.03
2022-09-01T05:49:50.214Z,100058.75
2022-09-01T05:52:17.329Z,100077.06
2022-09-01T05:54:45.999Z,100063.16
2022-09-01T05:57:33.192Z,100064.31
2022-09-01T06:00:00.441Z,100057.09
2022-09-01T06:02:27.859Z,100091.09
2022-09-01T06:04:57.212Z,100088.16
2022-09-01T06:07:28.760Z,100100.97
2022-09-01T06:09:59.764Z,100089.09
2022-09-01T06:12:28.040Z,100078.09
2022-09-01T06:14:55.913Z,100078.03
2022-09-01T06:17:26.032Z,100087.53
2022-09-01T06:19:56.799Z,100090.19
2022-09-01T06:22:26.713Z,100090.88
2022-09-01T06:24:58.214Z,100059.97
2022-09-01T06:27:28.392Z,100090.69
2022-09-01T06:29:56.213Z,100088.84
2022-09-01T06:32:25.879Z,100094.94
2022-09-01T06:34:54.006Z,100082.06
2022-09-01T06:37:22.411Z,100097.00
2022-09-01T06:39:52.170Z,100070.16
2022-09-01T06:42:19.943Z,100093.53
2022-09-01T06:44:52.620Z,100075.16
2022-09-01T06:47:19.730Z,100095.63
2022-09-01T06:49:46.548Z,100084.44
2022-09-01T06:52:20.811Z,100077.41
2022-09-01T06:54:48.659Z,100089.41
2022-09-01T07:00:19.236Z,100090.69
2022-09-01T07:02:53.337Z,100070.81
2022-09-01T07:06:02.612Z,100077.13
2022-09-01T07:12:25.085Z,100076.88
2022-09-01T07:17:43.175Z,100103.19
2022-09-01T07:20:27.269Z,100098.09
2022-09-01T07:26:00.961Z,100106.41
2022-09-01T07:28:40.540Z,100103.28
2022-09-01T07:39:48.590Z,100092.53
2022-09-01T07:42:30.322Z,100110.97
2022-09-01T07:45:59.770Z,100107.78
2022-09-01T07:48:36.669Z,100104.28
2022-09-01T07:51:36.473Z,100081.50
2022-09-01T07:54:05.574Z,100102.19
2022-09-01T07:56:36.255Z,100115.13
2022-09-01T07:59:07.041Z,100112.28
2022-09-01T08:01:35.910Z,100086.50
2022-09-01T08:04:03.459Z,100070.41
2022-09-01T08:06:37.874Z,100113.00
2022-09-01T08:09:37.469Z,100081.31
2022-09-01T08:12:07.682Z,100120.53
2022-09-01T08:14:39.256Z,100120.91
2022-09-01T08:19:55.374Z,100102.25
2022-09-01T08:22:42.050Z,100089.50
2022-09-01T08:25:24.213Z,100109.75
2022-09-01T08:27:59.806Z,100084.16
2022-09-01T08:30:27.850Z,100113.53
2022-09-01T08:32:55.054Z,100112.13
2022-09-01T08:35:23.032Z,100107.66
2022-09-01T08:37:49.802Z,100110.16
2022-09-01T08:40:20.542Z,100109.94
2022-09-01T08:43:02.614Z,100110.03
2022-09-01T08:45:38.198Z,100102.00
2022-09-01T08:49:09.683Z,100099.03
2022-09-01T08:51:20.917Z,100105.81
2022-09-01T08:54:20.139Z,100107.88
2022-09-01T08:56:59.226Z,100099.34
2022-09-01T08:59:46.288Z,100093.44
2022-09-01T09:02:52.885Z,100093.41
2022-09-01T09:05:22.887Z,100102.66
2022-09-01T09:08:08.747Z,100077.69
2022-09-01T09:11:08.299Z,100093.09
2022-09-01T09:13:57.293Z,100100.59
2022-09-01T09:16:40.946Z,100070.88
2022-09-01T09:19:19.607Z,100099.09
2022-09-01T09:21:48.981Z,100092.34
2022-09-01T09:24:47.218Z,100090.72
2022-09-01T09:27:21.474Z,100092.31
2022-09-01T09:29:57.274Z,100030.97
2022-09-01T09:33:15.039Z,100096.31
2022-09-01T09:35:41.935Z,100082.50
2022-09-01T09:38:19.029Z,100078.53
2022-09-01T09:41:18.826Z,100080.28
2022-09-01T09:44:19.269Z,100079.31
2022-09-01T09:46:48.770Z,100074.94
2022-09-01T09:49:36.049Z,100076.16
2022-09-01T09:52:10.661Z,100073.09
2022-09-01T09:54:41.159Z,100083.03
2022-09-01T09:57:16.048Z,100062.91
2022-09-01T10:00:01.055Z,100067.63
2022-09-01T10:02:28.913Z,100071.69
2022-09-01T10:04:57.057Z,100052.13
2022-09-01T10:07:25.818Z,100050.53
2022-09-01T10:09:55.504Z,100045.22
2022-09-01T10:12:25.222Z,100049.97
2022-09-01T10:14:58.682Z,100062.25
2022-09-01T10:17:35.957Z,100035.88
2022-09-01T10:20:12.205Z,100047.28
2022-09-01T10:22:40.069Z,100004.72
2022-09-01T10:25:10.346Z,100052.59
2022-09-01T10:27:42.009Z,100035.00
2022-09-01T10:30:18.432Z,100046.75
2022-09-01T10:33:19.860Z,100042.72
2022-09-01T10:35:52.094Z,100044.63
2022-09-01T10:38:22.865Z,100029.97
2022-09-01T10:41:07.781Z,100037.75
2022-09-01T10:43:48.927Z,100036.44
2022-09-01T10:46:25.891Z,100040.78
2022-09-01T10:48:57.327Z,100046.16
2022-09-01T10:52:02.680Z,100029.06
2022-09-01T10:54:50.901Z,100033.28
2022-09-01T10:57:43.599Z,100032.69
2022-09-01T11:00:36.907Z,100035.53
2022-09-01T11:06:13.164Z,100031.53
2022-09-01T11:08:50.763Z,100015.31
2022-09-01T11:11:33.747Z,100020.91
2022-09-01T11:14:01.342Z,100006.47
2022-09-01T11:16:50.006Z,100028.78
2022-09-01T11:19:45.666Z,100028.41
2022-09-01T11:22:15.406Z,100023.44
2022-09-01T11:24:42.437Z,100018.84
2022-09-01T11:27:12.337Z,100024.78
2022-09-01T11:29:58.749Z,100014.66
2022-09-01T11:32:32.405Z,100014.09
2022-09-01T11:35:04.801Z,99983.09
2022-09-01T11:37:33.258Z,100004.94
2022-09-01T11:40:07.357Z,100004.47
2022-09-01T11:42:41.030Z,100013.88
2022-09-01T11:45:12.616Z,99999.41
2022-09-01T11:47:52.782Z,99992.94
2022-09-01T11:50:56.682Z,99985.44
2022-09-01T11:53:24.180Z,99990.56
2022-09-01T11:55:54.249Z,99984.22
2022-09-01T11:58:30.857Z,99987.06
2022-09-01T12:01:19.922Z,99978.28
2022-09-01T12:03:48.731Z,99973.84
2022-09-01T12:06:23.567Z,99987.78
2022-09-01T12:09:02.298Z,99984.69
2022-09-01T12:11:32.632Z,99968.25
2022-09-01T12:14:01.006Z,99970.28
2022-09-01T12:16:29.317Z,99956.13
2022-09-01T12:18:59.096Z,99971.19
2022-09-01T12:21:25.905Z,99967.28
2022-09-01T12:23:53.125Z,99958.38
2022-09-01T12:26:29.137Z,99963.16
2022-09-01T12:28:57.002Z,99945.31
2022-09-01T12:31:26.041Z,99954.84
2022-09-01T12:33:56.325Z,99953.47
2022-09-01T12:36:30.787Z,99956.88
2022-09-01T12:39:17.528Z,99953.47
2022-09-01T12:41:46.232Z,99944.34
2022-09-01T12:44:30.943Z,99950.28
2022-09-01T12:47:33.432Z,99933.97
2022-09-01T12:50:03.456Z,99920.56
2022-09-01T12:52:32.971Z,99960.59
2022-09-01T12:54:59.741Z,99955.50
2022-09-01T12:57:32.238Z,99946.69
2022-09-01T13:00:11.747Z,99945.41
2022-09-01T13:02:43.025Z,99943.59
2022-09-01T13:05:42.095Z,99937.22
2022-09-01T13:08:10.705Z,99916.59
2022-09-01T13:11:04.698Z,99946.19
2022-09-01T13:13:31.927Z,99926.56
2022-09-01T13:16:12.854Z,99935.00
2022-09-01T13:21:30.409Z,99925.41
2022-09-01T13:23:59.953Z,99926.84
2022-09-01T13:26:26.837Z,99912.47
2022-09-01T13:28:53.880Z,99911.91
2022-09-01T13:31:28.954Z,99911.13
2022-09-01T13:34:22.588Z,99916.03
2022-09-01T13:36:47.038Z,99896.56
2022-09-01T13:39:15.873Z,99911.47
2022-09-01T13:41:43.144Z,99907.94
2022-09-01T13:44:11.635Z,99902.97
2022-09-01T13:52:13.165Z,99902.00
2022-09-01T13:54:40.234Z,99899.94
2022-09-01T13:57:06.968Z,99893.06
2022-09-01T13:59:33.749Z,99891.81
2022-09-01T14:02:01.589Z,99891.56
2022-09-01T14:04:28.636Z,99877.63
2022-09-01T14:06:55.453Z,99874.69
2022-09-01T14:09:23.483Z,99880.94
2022-09-01T14:11:53.779Z,99879.03
2022-09-01T14:14:20.757Z,99884.22
2022-09-01T14:16:47.764Z,99873.78
2022-09-01T14:19:15.762Z,99857.41
2022-09-01T14:21:43.124Z,99870.19
2022-09-01T14:24:09.958Z,99867.69
2022-09-01T14:26:36.739Z,99861.28
2022-09-01T14:29:03.596Z,99845.84
2022-09-01T14:31:30.475Z,99863.47
2022-09-01T14:33:57.296Z,99846.59
2022-09-01T14:36:26.844Z,99871.66
2022-09-01T14:38:54.142Z,99870.44
2022-09-01T14:41:24.191Z,99854.16
2022-09-01T14:43:57.620Z,99870.53
2022-09-01T14:46:26.789Z,99866.31
2022-09-01T14:48:53.634Z,99866.88
2022-09-01T14:51:25.773Z,99868.94
2022-09-01T14:53:54.403Z,99867.41
2022-09-01T14:56:22.549Z,99865.63
2022-09-01T14:58:50.842Z,99839.59
2022-09-01T15:01:33.776Z,99853.97
2022-09-01T15:04:01.564Z,99861.28
2022-09-01T15:06:28.479Z,99865.84
2022-09-01T15:08:55.368Z,99839.28
2022-09-01T15:11:22.121Z,99829.56
2022-09-01T15:13:52.099Z,99831.22
2022-09-01T15:16:21.993Z,99857.69
2022-09-01T15:18:48.923Z,99843.91
2022-09-01T15:21:25.140Z,99851.41
2022-09-01T15:23:53.942Z,99851.63
2022-09-01T15:26:21.652Z,99854.28
2022-09-01T15:28:50.068Z,99846.53
2022-09-01T15:31:18.964Z,99851.00
2022-09-01T15:33:56.531Z,99820.84
2022-09-01T15:36:26.364Z,99852.25
2022-09-01T15:38:53.195Z,99830.69
2022-09-01T15:41:24.613Z,99852.97
2022-09-01T15:43:51.647Z,99827.34
2022-09-01T15:46:19.478Z,99840.97
2022-09-01T15:48:46.740Z,99854.25
2022-09-01T15:51:22.172Z,99850.13
2022-09-01T15:53:57.375Z,99837.94
2022-09-01T15:56:24.278Z,99843.91
2022-09-01T15:59:00.753Z,99840.91
2022-09-01T16:01:30.444Z,99839.50
2022-09-01T16:03:57.699Z,99846.75
2022-09-01T16:07:03.219Z,99842.06
2022-09-01T16:09:30.060Z,99844.50
2022-09-01T16:11:56.848Z,99821.25
2022-09-01T16:14:23.835Z,99829.84
2022-09-01T16:17:19.770Z,99820.38
2022-09-01T16:20:10.814Z,99827.94
2022-09-01T16:22:48.059Z,99819.88
2022-09-01T16:25:42.929Z,99836.44
2022-09-01T16:28:31.222Z,99838.06
2022-09-01T16:31:21.302Z,99834.78
2022-09-01T16:33:51.407Z,99835.09
2022-09-01T16:36:33.006Z,99842.69
2022-09-01T16:39:07.000Z,99814.84
2022-09-01T16:41:37.732Z,99832.75
2022-09-01T16:44:19.709Z,99836.91
2022-09-01T16:47:09.838Z,99831.75
2022-09-01T16:49:50.777Z,99837.22
2022-09-01T16:52:17.479Z,99837.00
2022-09-01T16:54:56.105Z,99835.91
2022-09-01T16:58:08.256Z,99828.09
2022-09-01T17:00:42.393Z,99811.50
2022-09-01T17:03:19.394Z,99820.84
2022-09-01T17:06:21.595Z,99826.84
2022-09-01T17:08:56.568Z,99820.56
2022-09-01T17:11:49.285Z,99809.00
2022-09-01T17:14:25.419Z,99820.38
2022-09-01T17:16:57.041Z,99782.56
2022-09-01T17:19:25.878Z,99808.84
2022-09-01T17:22:14.485Z,99824.66
2022-09-01T17:24:43.705Z,99828.78
2022-09-01T17:27:18.359Z,99828.66
2022-09-01T17:29:48.050Z,99828.38
2022-09-01T17:32:34.678Z,99840.59
2022-09-01T17:35:07.753Z,99833.53
2022-09-01T17:37:39.997Z,99840.81
2022-09-01T17:40:15.283Z,99841.06
2022-09-01T17:43:01.032Z,99847.22
2022-09-01T17:45:45.467Z,99841.25
2022-09-01T17:48:27.050Z,99809.47
2022-09-01T17:50:59.425Z,99848.41
2022-09-01T17:54:00.433Z,99849.13
2022-09-01T17:56:53.722Z,99857.19
2022-09-01T17:59:41.262Z,99862.25
2022-09-01T18:02:25.286Z,99852.47
2022-09-01T18:05:00.530Z,99847.78
2022-09-01T18:07:57.039Z,99858.00
2022-09-01T18:10:45.838Z,99850.59
2022-09-01T18:13:30.690Z,99841.47
2022-09-01T18:16:00.473Z,99859.88
2022-09-01T18:18:35.311Z,99866.53
2022-09-01T18:21:05.110Z,99866.19
2022-09-01T18:23:37.884Z,99875.84
2022-09-01T18:26:20.678Z,99879.84
2022-09-01T18:28:51.959Z,99851.84
2022-09-01T18:31:33.850Z,99880.81
2022-09-01T18:34:12.537Z,99888.00
2022-09-01T18:36:50.474Z,99871.03
2022-09-01T18:39:38.361Z,99885.66
2022-09-01T18:42:16.796Z,99860.16
2022-09-01T18:44:51.217Z,99895.09
2022-09-01T18:47:29.910Z,99889.56
2022-09-01T18:50:17.805Z,99900.09
2022-09-01T18:52:51.653Z,99904.63
2022-09-01T18:55:22.828Z,99876.31
2022-09-01T18:57:56.472Z,99895.91
2022-09-01T19:00:47.878Z,99872.44
2022-09-01T19:03:54.126Z,99906.78
2022-09-01T19:06:26.828Z,99899.44
2022-09-01T19:09:02.354Z,99900.53
2022-09-01T19:11:34.713Z,99892.34
2022-09-01T19:14:42.427Z,99898.22
2022-09-01T19:17:34.045Z,99906.50
2022-09-01T19:20:19.461Z,99908.28
2022-09-01T19:23:12.235Z,99909.28
2022-09-01T19:25:41.885Z,99891.34
2022-09-01T19:28:17.849Z,99911.88
2022-09-01T19:30:50.291Z,99916.13
2022-09-01T19:33:25.289Z,99916.63
2022-09-01T19:35:55.984Z,99899.44
2022-09-01T19:38:27.821Z,99912.19
2022-09-01T19:41:08.218Z,99912.91
2022-09-01T19:43:37.193Z,99912.34
2022-09-01T19:46:16.450Z,99886.94
2022-09-01T19:48:52.115Z,99900.97
2022-09-01T19:51:26.208Z,99918.53
2022-09-01T19:54:09.048Z,99911.69
2022-09-01T19:57:06.168Z,99904.56
2022-09-01T19:59:39.219Z,99903.91
2022-09-01T20:02:21.029Z,99899.41
2022-09-01T20:04:53.595Z,99904.78
2022-09-01T20:07:50.820Z,99898.44
2022-09-01T20:10:17.902Z,99910.66
2022-09-01T20:13:16.638Z,99901.47
2022-09-01T20:15:51.450Z,99897.25
2022-09-01T20:18:49.171Z,99912.34
2022-09-01T20:21:21.301Z,99906.91
2022-09-01T20:24:03.479Z,99907.94
2022-09-01T20:27:05.374Z,99909.00
2022-09-01T20:29:58.176Z,99895.69
2022-09-01T20:32:38.920Z,99905.72
2022-09-01T20:35:21.103Z,99900.47
2022-09-01T20:37:59.207Z,99904.69
2022-09-01T20:40:34.733Z,99898.72
2022-09-01T20:43:04.598Z,99904.56
2022-09-01T20:45:31.984Z,99870.75
2022-09-01T20:48:12.921Z,99900.63
2022-09-01T20:50:43.386Z,99903.25
2022-09-01T20:53:13.501Z,99902.91
2022-09-01T20:55:44.071Z,99907.91
2022-09-01T20:58:19.990Z,99906.41
2022-09-01T21:01:19.501Z,99898.25
2022-09-01T21:04:05.899Z,99904.31
2022-09-01T21:06:49.082Z,99899.09
2022-09-01T21:09:29.763Z,99879.50
2022-09-01T21:12:02.541Z,99897.09
2022-09-01T21:14:39.638Z,99893.59
2022-09-01T21:17:24.819Z,99896.56
2022-09-01T21:19:57.314Z,99896.66
2022-09-01T21:22:24.100Z,99889.06
2022-09-01T21:24:51.206Z,99900.06
2022-09-01T21:27:28.779Z,99884.53
2022-09-01T21:30:00.907Z,99887.13
2022-09-01T21:32:30.717Z,99880.72
2022-09-01T21:34:58.497Z,99858.75
2022-09-01T21:37:26.690Z,99884.91
2022-09-01T21:39:54.548Z,99885.34
2022-09-01T21:42:45.361Z,99887.47
2022-09-01T21:45:15.352Z,99891.69
2022-09-01T21:47:43.732Z,99886.78
2022-09-01T21:50:11.257Z,99877.47
2022-09-01T21:52:38.434Z,99888.28
2022-09-01T21:55:06.642Z,99892.25
2022-09-01T21:57:33.451Z,99864.28
2022-09-01T22:00:04.969Z,99889.56
2022-09-01T22:02:41.910Z,99867.88
2022-09-01T22:05:09.866Z,99882.84
2022-09-01T22:07:40.480Z,99881.66
2022-09-01T22:10:10.721Z,99863.47
2022-09-01T22:12:39.458Z,99885.38
2022-09-01T22:15:09.251Z,99869.41
2022-09-01T22:17:36.157Z,99882.84
2022-09-01T22:20:05.720Z,99879.03
2022-09-01T22:22:33.749Z,99880.03
2022-09-01T22:25:05.046Z,99875.09
2022-09-01T22:27:31.780Z,99878.81
2022-09-01T22:29:58.604Z,99875.00
2022-09-01T22:32:27.790Z,99849.44
2022-09-01T22:34:56.621Z,99883.03
2022-09-01T22:37:23.399Z,99878.34
2022-09-01T22:39:50.214Z,99875.81
2022-09-01T22:42:17.005Z,99880.88
2022-09-01T22:44:43.758Z,99866.91
2022-09-01T22:47:13.296Z,99846.13
2022-09-01T22:49:40.086Z,99858.72
2022-09-01T22:52:06.880Z,99879.63
2022-09-01T22:54:33.753Z,99865.50
2022-09-01T22:57:02.225Z,99884.41
2022-09-01T22:59:29.029Z,99869.34
2022-09-01T23:01:56.957Z,99865.81
2022-09-01T23:04:24.959Z,99884.50
2022-09-01T23:06:53.891Z,99885.78
2022-09-01T23:09:21.485Z,99874.09
2022-09-01T23:11:49.065Z,99868.47
2022-09-01T23:14:16.455Z,99856.00
2022-09-01T23:16:43.274Z,99866.50
2022-09-01T23:19:10.092Z,99880.03
2022-09-01T23:21:38.176Z,99873.97
2022-09-01T23:24:05.930Z,99860.78
2022-09-01T23:26:33.419Z,99868.38
2022-09-01T23:29:01.023Z,99875.22
2022-09-01T23:31:33.506Z,99873.97
2022-09-01T23:34:00.411Z,99869.16
2022-09-01T23:36:28.788Z,99860.53
2022-09-01T23:38:56.315Z,99849.44
2022-09-01T23:41:31.077Z,99876.28
2022-09-01T23:44:01.432Z,99871.38
2022-09-01T23:46:34.370Z,99877.22
2022-09-01T23:49:02.133Z,99873.56
2022-09-01T23:51:29.890Z,99869.84
2022-09-01T23:53:56.957Z,99873.34
2022-09-01T23:56:26.544Z,99857.34
2022-09-01T23:58:54.550Z,99869.94
